sensor_id;sensor_type;location;lat;lon;timestamp;pressure;altitude;pressure_sealevel;temperature;humidity
71956;BME280;59829;50.562;6.258;2024-02-15T00:08:16;95963.81;;;10.89;100.00
71956;BME280;59829;50.562;6.258;2024-02-15T00:18:16;95961.25;;;10.89;100.00
71956;BME280;59829;50.562;6.258;2024-02-15T00:28:16;95956.00;;;10.91;100.00
71956;BME280;59829;50.562;6.258;2024-02-15T00:38:17;95958.44;;;10.92;100.00
71956;BME280;59829;50.562;6.258;2024-02-15T00:48:17;95966.84;;;10.94;100.00
71956;BME280;59829;50.562;6.258;2024-02-15T00:58:18;95965.09;;;10.95;100.00
71956;BME280;59829;50.562;6.258;2024-02-15T01:08:18;95971.72;;;10.97;100.00
71956;BME280;59829;50.562;6.258;2024-02-15T01:18:19;95970.91;;;10.97;100.00
71956;BME280;59829;50.562;6.258;2024-02-15T01:28:19;95963.09;;;10.98;100.00
71956;BME280;59829;50.562;6.258;2024-02-15T01:38:20;95949.34;;;10.99;100.00
71956;BME280;59829;50.562;6.258;2024-02-15T01:48:20;95949.34;;;10.99;100.00
71956;BME280;59829;50.562;6.258;2024-02-15T01:58:21;95945.84;;;11.00;100.00
71956;BME280;59829;50.562;6.258;2024-02-15T02:08:21;95938.84;;;11.02;100.00
71956;BME280;59829;50.562;6.258;2024-02-15T02:18:22;95924.41;;;11.01;100.00
71956;BME280;59829;50.562;6.258;2024-02-15T02:28:24;95908.09;;;11.02;100.00
71956;BME280;59829;50.562;6.258;2024-02-15T02:38:24;95913.91;;;11.04;100.00
71956;BME280;59829;50.562;6.258;2024-02-15T02:48:26;95885.72;;;11.04;100.00
71956;BME280;59829;50.562;6.258;2024-02-15T02:58:27;95871.13;;;11.05;100.00
71956;BME280;59829;50.562;6.258;2024-02-15T03:08:28;95877.09;;;11.05;100.00
71956;BME280;59829;50.562;6.258;2024-02-15T03:18:29;95860.75;;;11.06;100.00
71956;BME280;59829;50.562;6.258;2024-02-15T03:28:29;95847.94;;;11.06;100.00
71956;BME280;59829;50.562;6.258;2024-02-15T03:38:29;95840.13;;;11.08;100.00
71956;BME280;59829;50.562;6.258;2024-02-15T03:48:31;95835.81;;;11.08;100.00
71956;BME280;59829;50.562;6.258;2024-02-15T03:58:32;95842.56;;;11.09;100.00
71956;BME280;59829;50.562;6.258;2024-02-15T04:08:33;95838.38;;;11.08;100.00
71956;BME280;59829;50.562;6.258;2024-02-15T04:18:33;95852.81;;;11.09;100.00
71956;BME280;59829;50.562;6.258;2024-02-15T04:28:33;95854.44;;;11.10;100.00
71956;BME280;59829;50.562;6.258;2024-02-15T04:38:34;95859.56;;;11.10;100.00
71956;BME280;59829;50.562;6.258;2024-02-15T04:48:34;95849.31;;;11.10;100.00
71956;BME280;59829;50.562;6.258;2024-02-15T04:58:35;95845.84;;;11.11;100.00
71956;BME280;59829;50.562;6.258;2024-02-15T05:08:36;95840.72;;;11.11;100.00
71956;BME280;59829;50.562;6.258;2024-02-15T05:18:42;95848.28;;;11.13;100.00
71956;BME280;59829;50.562;6.258;2024-02-15T05:28:42;95832.91;;;11.13;100.00
71956;BME280;59829;50.562;6.258;2024-02-15T05:38:44;95831.03;;;11.15;100.00
71956;BME280;59829;50.562;6.258;2024-02-15T05:48:45;95822.50;;;11.14;100.00
71956;BME280;59829;50.562;6.258;2024-02-15T05:58:45;95812.13;;;11.16;100.00
71956;BME280;59829;50.562;6.258;2024-02-15T06:08:47;95803.50;;;11.17;100.00
71956;BME280;59829;50.562;6.258;2024-02-15T06:18:47;95808.63;;;11.17;100.00
71956;BME280;59829;50.562;6.258;2024-02-15T06:28:48;95805.13;;;11.18;100.00
71956;BME280;59829;50.562;6.258;2024-02-15T06:39:06;95811.06;;;11.18;100.00
71956;BME280;59829;50.562;6.258;2024-02-15T06:49:25;95815.38;;;11.18;100.00
71956;BME280;59829;50.562;6.258;2024-02-15T06:59:26;95811.88;;;11.19;100.00
71956;BME280;59829;50.562;6.258;2024-02-15T07:09:26;95817.81;;;11.20;100.00
71956;BME280;59829;50.562;6.258;2024-02-15T07:19:27;95819.44;;;11.21;100.00
71956;BME280;59829;50.562;6.258;2024-02-15T07:29:28;95817.81;;;11.20;100.00
71956;BME280;59829;50.562;6.258;2024-02-15T07:39:28;95813.38;;;11.22;100.00
71956;BME280;59829;50.562;6.258;2024-02-15T07:49:29;95820.13;;;11.23;100.00
71956;BME280;59829;50.562;6.258;2024-02-15T07:59:29;95810.69;;;11.23;100.00
71956;BME280;59829;50.562;6.258;2024-02-15T08:09:30;95820.81;;;11.25;100.00
71956;BME280;59829;50.562;6.258;2024-02-15T08:19:30;95827.56;;;11.26;100.00
71956;BME280;59829;50.562;6.258;2024-02-15T08:29:30;95820.56;;;11.28;100.00
71956;BME280;59829;50.562;6.258;2024-02-15T08:39:31;95825.44;;;11.31;100.00
71956;BME280;59829;50.562;6.258;2024-02-15T08:49:31;95815.19;;;11.31;100.00
71956;BME280;59829;50.562;6.258;2024-02-15T08:59:32;95806.56;;;11.32;100.00
71956;BME280;59829;50.562;6.258;2024-02-15T09:09:33;95809.00;;;11.33;100.00
71956;BME280;59829;50.562;6.258;2024-02-15T09:19:34;95802.78;;;11.36;100.00
71956;BME280;59829;50.562;6.258;2024-02-15T09:29:34;95797.66;;;11.36;100.00
71956;BME280;59829;50.562;6.258;2024-02-15T09:39:36;95787.28;;;11.37;100.00
71956;BME280;59829;50.562;6.258;2024-02-15T09:49:39;95790.41;;;11.41;100.00
71956;BME280;59829;50.562;6.258;2024-02-15T09:59:40;95788.09;;;11.38;100.00
71956;BME280;59829;50.562;6.258;2024-02-15T10:09:40;95786.03;;;11.32;100.00
71956;BME280;59829;50.562;6.258;2024-02-15T10:19:42;95784.66;;;11.28;100.00
71956;BME280;59829;50.562;6.258;2024-02-15T10:29:44;95786.53;;;11.26;100.00
71956;BME280;59829;50.562;6.258;2024-02-15T10:39:45;95787.47;;;11.25;100.00
71956;BME280;59829;50.562;6.258;2024-02-15T10:49:47;95781.66;;;11.23;100.00
71956;BME280;59829;50.562;6.258;2024-02-15T10:59:55;95777.66;;;11.30;100.00
71956;BME280;59829;50.562;6.258;2024-02-15T11:09:59;95770.00;;;11.70;100.00
71956;BME280;59829;50.562;6.258;2024-02-15T11:20:00;95745.38;;;11.88;100.00
71956;BME280;59829;50.562;6.258;2024-02-15T11:30:01;95741.75;;;12.10;100.00
71956;BME280;59829;50.562;6.258;2024-02-15T11:50:42;95720.41;;;12.00;100.00
71956;BME280;59829;50.562;6.258;2024-02-15T12:00:42;95706.63;;;12.01;100.00
71956;BME280;59829;50.562;6.258;2024-02-15T12:11:01;95693.63;;;11.93;100.00
71956;BME280;59829;50.562;6.258;2024-02-15T12:21:24;95681.19;;;11.88;100.00
71956;BME280;59829;50.562;6.258;2024-02-15T12:31:25;95661.75;;;11.86;100.00
71956;BME280;59829;50.562;6.258;2024-02-15T12:41:28;95643.09;;;11.84;100.00
71956;BME280;59829;50.562;6.258;2024-02-15T12:51:30;95641.50;;;11.83;100.00
71956;BME280;59829;50.562;6.258;2024-02-15T13:01:31;95623.53;;;11.83;100.00
71956;BME280;59829;50.562;6.258;2024-02-15T13:11:32;95615.81;;;11.83;100.00
71956;BME280;59829;50.562;6.258;2024-02-15T13:21:34;95591.78;;;11.84;100.00
71956;BME280;59829;50.562;6.258;2024-02-15T13:31:34;95573.81;;;11.84;100.00
71956;BME280;59829;50.562;6.258;2024-02-15T13:41:34;95571.25;;;11.84;100.00
71956;BME280;59829;50.562;6.258;2024-02-15T13:51:35;95549.91;;;11.83;100.00
71956;BME280;59829;50.562;6.258;2024-02-15T14:01:36;95553.94;;;11.86;100.00
71956;BME280;59829;50.562;6.258;2024-02-15T14:11:43;95537.75;;;11.85;100.00
71956;BME280;59829;50.562;6.258;2024-02-15T14:21:44;95521.25;;;11.88;100.00
71956;BME280;59829;50.562;6.258;2024-02-15T14:31:45;95521.13;;;11.89;100.00
71956;BME280;59829;50.562;6.258;2024-02-15T14:42:04;95524.50;;;11.90;100.00
71956;BME280;59829;50.562;6.258;2024-02-15T14:52:05;95511.38;;;11.93;100.00
71956;BME280;59829;50.562;6.258;2024-02-15T15:02:05;95503.41;;;11.96;100.00
71956;BME280;59829;50.562;6.258;2024-02-15T15:12:08;95502.44;;;11.97;100.00
71956;BME280;59829;50.562;6.258;2024-02-15T15:22:28;95478.28;;;11.99;100.00
71956;BME280;59829;50.562;6.258;2024-02-15T15:32:28;95472.59;;;12.05;100.00
71956;BME280;59829;50.562;6.258;2024-02-15T15:42:28;95466.34;;;12.08;100.00
71956;BME280;59829;50.562;6.258;2024-02-15T15:52:29;95453.38;;;12.10;100.00
71956;BME280;59829;50.562;6.258;2024-02-15T16:02:29;95451.63;;;12.10;100.00
71956;BME280;59829;50.562;6.258;2024-02-15T16:12:30;95449.72;;;12.12;100.00
71956;BME280;59829;50.562;6.258;2024-02-15T16:22:35;95426.63;;;12.12;100.00
71956;BME280;59829;50.562;6.258;2024-02-15T16:32:37;95417.97;;;12.13;100.00
71956;BME280;59829;50.562;6.258;2024-02-15T16:42:41;95397.41;;;12.13;100.00
71956;BME280;59829;50.562;6.258;2024-02-15T16:52:48;95394.09;;;12.30;100.00
71956;BME280;59829;50.562;6.258;2024-02-15T17:02:49;95386.66;;;12.37;100.00
71956;BME280;59829;50.562;6.258;2024-02-15T17:12:50;95386.78;;;12.35;100.00
71956;BME280;59829;50.562;6.258;2024-02-15T17:22:52;95389.38;;;12.35;100.00
71956;BME280;59829;50.562;6.258;2024-02-15T17:32:53;95387.75;;;12.34;100.00
71956;BME280;59829;50.562;6.258;2024-02-15T17:42:53;95384.88;;;12.37;100.00
71956;BME280;59829;50.562;6.258;2024-02-15T17:52:53;95366.97;;;12.46;100.00
71956;BME280;59829;50.562;6.258;2024-02-15T18:02:54;95375.91;;;12.51;100.00
71956;BME280;59829;50.562;6.258;2024-02-15T18:12:54;95384.13;;;12.55;100.00
71956;BME280;59829;50.562;6.258;2024-02-15T18:22:55;95386.38;;;12.58;100.00
71956;BME280;59829;50.562;6.258;2024-02-15T18:32:55;95398.00;;;12.62;100.00
71956;BME280;59829;50.562;6.258;2024-02-15T18:42:57;95384.19;;;12.63;100.00
71956;BME280;59829;50.562;6.258;2024-02-15T18:52:57;95367.66;;;12.65;100.00
71956;BME280;59829;50.562;6.258;2024-02-15T19:02:58;95377.81;;;12.67;100.00
71956;BME280;59829;50.562;6.258;2024-02-15T19:13:00;95373.34;;;12.69;100.00
71956;BME280;59829;50.562;6.258;2024-02-15T19:23:01;95361.44;;;12.68;100.00
71956;BME280;59829;50.562;6.258;2024-02-15T19:33:01;95357.94;;;12.69;100.00
71956;BME280;59829;50.562;6.258;2024-02-15T19:43:02;95366.28;;;12.71;100.00
71956;BME280;59829;50.562;6.258;2024-02-15T19:53:02;95355.72;;;12.74;100.00
71956;BME280;59829;50.562;6.258;2024-02-15T20:03:04;95340.28;;;12.74;100.00
71956;BME280;59829;50.562;6.258;2024-02-15T20:13:04;95343.53;;;12.76;100.00
71956;BME280;59829;50.562;6.258;2024-02-15T20:23:05;95345.13;;;12.77;100.00
71956;BME280;59829;50.562;6.258;2024-02-15T20:33:05;95338.25;;;12.78;100.00
71956;BME280;59829;50.562;6.258;2024-02-15T20:43:11;95338.09;;;12.79;100.00
71956;BME280;59829;50.562;6.258;2024-02-15T20:53:12;95334.56;;;12.80;100.00
71956;BME280;59829;50.562;6.258;2024-02-15T21:03:12;95350.63;;;12.82;100.00
71956;BME280;59829;50.562;6.258;2024-02-15T21:13:12;95318.84;;;12.83;100.00
71956;BME280;59829;50.562;6.258;2024-02-15T21:23:14;95335.06;;;12.84;100.00
71956;BME280;59829;50.562;6.258;2024-02-15T21:33:14;95335.91;;;12.84;100.00
71956;BME280;59829;50.562;6.258;2024-02-15T21:43:14;95330.75;;;12.84;100.00
71956;BME280;59829;50.562;6.258;2024-02-15T21:53:15;95322.09;;;12.85;100.00
71956;BME280;59829;50.562;6.258;2024-02-15T22:03:16;95327.25;;;12.85;100.00
71956;BME280;59829;50.562;6.258;2024-02-15T22:13:16;95318.56;;;12.86;100.00
71956;BME280;59829;50.562;6.258;2024-02-15T22:23:18;95327.88;;;12.87;100.00
71956;BME280;59829;50.562;6.258;2024-02-15T22:33:20;95336.56;;;12.86;100.00
71956;BME280;59829;50.562;6.258;2024-02-15T22:43:23;95335.59;;;12.87;100.00
71956;BME280;59829;50.562;6.258;2024-02-15T22:53:23;95338.03;;;12.89;100.00
71956;BME280;59829;50.562;6.258;2024-02-15T23:03:23;95331.13;;;12.89;100.00
71956;BME280;59829;50.562;6.258;2024-02-15T23:13:24;95326.94;;;12.88;100.00
71956;BME280;59829;50.562;6.258;2024-02-15T23:23:24;95329.34;;;12.90;100.00
71956;BME280;59829;50.562;6.258;2024-02-15T23:33:25;95325.03;;;12.90;100.00
71956;BME280;59829;50.562;6.258;2024-02-15T23:43:25;95304.47;;;12.90;100.00
71956;BME280;59829;50.562;6.258;2024-02-15T23:53:26;95302.53;;;12.92;100.00
